createdAt,value
2018-12-04T00:04:24.664Z,7.050781
2018-12-04T00:09:47.789Z,7.04071
2018-12-04T00:15:10.735Z,6.889648
2018-12-04T00:20:33.515Z,6.889648
2018-12-04T00:25:56.260Z,6.899719
2018-12-04T00:31:19.146Z,6.859436
2018-12-04T00:36:42.071Z,6.829224
2018-12-04T00:42:04.872Z,6.809082
2018-12-04T00:47:27.999Z,6.809082
2018-12-04T00:52:50.623Z,6.748657
2018-12-04T00:58:13.360Z,6.758728
2018-12-04T01:03:36.001Z,6.708374
2018-12-04T01:08:58.648Z,6.708374
2018-12-04T01:14:21.385Z,6.53717
2018-12-04T01:19:44.087Z,6.446533
2018-12-04T01:25:07.362Z,6.386108
2018-12-04T01:30:30.132Z,6.426392
2018-12-04T01:35:53.647Z,6.446533
2018-12-04T01:41:16.332Z,6.456604
2018-12-04T01:46:38.921Z,6.345825
2018-12-04T01:52:01.567Z,6.386108
2018-12-04T01:57:24.234Z,6.386108
2018-12-04T02:02:47.046Z,6.386108
2018-12-04T02:08:16.532Z,6.446533
2018-12-04T02:13:39.166Z,6.376038
2018-12-04T02:19:01.806Z,6.426392
2018-12-04T02:24:24.467Z,6.426392
2018-12-04T02:29:47.245Z,6.496887
2018-12-04T02:35:09.957Z,6.496887
2018-12-04T02:40:32.620Z,6.53717
2018-12-04T02:45:55.298Z,6.426392
2018-12-04T02:51:18.109Z,6.476746
2018-12-04T02:56:41.013Z,6.396179
2018-12-04T03:02:03.853Z,6.396179
2018-12-04T03:07:26.578Z,6.426392
2018-12-04T03:12:49.314Z,6.265259
2018-12-04T03:18:11.982Z,6.295471
2018-12-04T03:23:34.780Z,6.194763
2018-12-04T03:28:56.439Z,6.214905
2018-12-04T03:34:19.159Z,6.144409
2018-12-04T03:39:41.851Z,6.134338
2018-12-04T03:45:05.192Z,6.083984
2018-12-04T03:50:27.878Z,6.083984
2018-12-04T03:55:50.600Z,6.104126
2018-12-04T04:01:13.244Z,6.013489
2018-12-04T04:06:36.108Z,5.882568
2018-12-04T04:11:58.866Z,5.701294
2018-12-04T04:17:21.548Z,5.600586
2018-12-04T04:22:44.214Z,5.409241
2018-12-04T04:28:06.890Z,5.368958
2018-12-04T04:33:29.535Z,5.258179
2018-12-04T04:38:52.223Z,5.016479
2018-12-04T04:44:15.844Z,4.905701
2018-12-04T04:49:41.641Z,5.006409
2018-12-04T04:55:04.326Z,4.905701
2018-12-04T05:00:27.066Z,4.825134
2018-12-04T05:05:49.915Z,4.804993
2018-12-04T05:11:12.683Z,4.754639
2018-12-04T05:16:35.539Z,4.714355
2018-12-04T05:21:58.216Z,4.64386
2018-12-04T05:27:20.987Z,4.361877
2018-12-04T05:32:43.695Z,4.311523
2018-12-04T05:38:06.724Z,3.677063
2018-12-04T05:43:29.425Z,3.63678
2018-12-04T05:48:52.357Z,3.878479
2018-12-04T05:54:15.988Z,3.818054
2018-12-04T05:59:40.832Z,3.666992
2018-12-04T06:05:03.543Z,3.495789
2018-12-04T06:10:26.411Z,3.13324
2018-12-04T06:15:49.276Z,3.022461
2018-12-04T06:21:12.669Z,2.861328
2018-12-04T06:26:35.354Z,2.649841
2018-12-04T06:31:58.019Z,2.609558
2018-12-04T06:37:20.835Z,2.549133
2018-12-04T06:42:44.203Z,2.982178
2018-12-04T06:48:07.197Z,3.123169
2018-12-04T06:53:32.423Z,2.790833
2018-12-04T06:58:55.214Z,2.831116
2018-12-04T07:04:17.935Z,2.770691
2018-12-04T07:09:40.760Z,2.649841
2018-12-04T07:15:03.802Z,2.619629
2018-12-04T07:20:27.161Z,2.589417
2018-12-04T07:25:54.730Z,2.559204
2018-12-04T07:31:17.487Z,2.619629
2018-12-04T07:36:40.821Z,2.710266
2018-12-04T07:42:03.803Z,2.297363
2018-12-04T07:47:27.383Z,2.357788
2018-12-04T07:52:50.767Z,2.287292
2018-12-04T07:58:13.427Z,2.357788
2018-12-04T08:03:36.181Z,2.287292
2018-12-04T08:08:58.834Z,2.196655
2018-12-04T08:14:21.647Z,2.861328
2018-12-04T08:19:50.117Z,2.810974
2018-12-04T08:25:13.396Z,3.233948
2018-12-04T08:30:36.043Z,3.677063
2018-12-04T08:35:58.728Z,4.180603
2018-12-04T08:41:21.526Z,4.382019
2018-12-04T08:46:44.972Z,4.200745
2018-12-04T08:52:08.467Z,4.382019
2018-12-04T08:57:31.292Z,4.472656
2018-12-04T09:02:54.824Z,4.543152
2018-12-04T09:08:18.127Z,4.684143
2018-12-04T09:13:41.076Z,4.714355
2018-12-04T09:19:05.294Z,4.865417
2018-12-04T09:24:30.616Z,5.016479
2018-12-04T09:29:50.675Z,5.117188
2018-12-04T09:35:13.415Z,5.298462
2018-12-04T09:40:36.803Z,5.39917
2018-12-04T09:45:59.678Z,5.509949
2018-12-04T09:51:22.570Z,5.630798
2018-12-04T09:56:48.740Z,5.671082
2018-12-04T10:02:11.397Z,5.842285
2018-12-04T10:07:34.553Z,5.993347
2018-12-04T10:12:57.376Z,6.164551
2018-12-04T10:18:20.747Z,6.265259
2018-12-04T10:23:43.641Z,6.27533
2018-12-04T10:29:06.484Z,6.355896
2018-12-04T10:34:29.321Z,6.426392
2018-12-04T10:39:51.980Z,6.496887
2018-12-04T10:45:14.726Z,6.678162
2018-12-04T10:50:37.468Z,6.899719
2018-12-04T10:56:00.243Z,6.970215
2018-12-04T11:01:22.932Z,6.960144
2018-12-04T11:06:45.653Z,6.929932
2018-12-04T11:12:12.183Z,7.04071
2018-12-04T11:17:31.093Z,7.121277
2018-12-04T11:22:53.867Z,7.232056
2018-12-04T11:28:17.550Z,7.393188
2018-12-04T11:33:40.189Z,7.423401
2018-12-04T11:39:02.859Z,7.332764
2018-12-04T11:44:25.629Z,7.473755
2018-12-04T11:49:48.949Z,7.524109
2018-12-04T11:55:11.627Z,7.524109
2018-12-04T12:00:34.476Z,7.554321
2018-12-04T12:05:57.253Z,7.554321
2018-12-04T12:11:19.999Z,7.78595
2018-12-04T12:16:42.725Z,7.765808
2018-12-04T12:22:05.380Z,7.846375
2018-12-04T12:27:29.077Z,7.846375
2018-12-04T12:32:51.920Z,7.705383
2018-12-04T12:38:14.602Z,7.856445
2018-12-04T12:43:37.376Z,7.906799
2018-12-04T12:49:00.874Z,8.03772
2018-12-04T12:54:23.517Z,7.906799
2018-12-04T12:59:46.197Z,7.846375
2018-12-04T13:05:08.843Z,7.765808
2018-12-04T13:10:31.574Z,7.806091
2018-12-04T13:15:54.367Z,7.604675
2018-12-04T13:21:17.580Z,7.393188
2018-12-04T13:26:40.194Z,7.483826
2018-12-04T13:32:02.861Z,7.41333
2018-12-04T13:37:25.566Z,7.373047
2018-12-04T13:42:48.370Z,7.332764
2018-12-04T13:48:11.275Z,7.332764
2018-12-04T13:53:34.013Z,7.322693
2018-12-04T13:58:56.741Z,7.362976
2018-12-04T14:04:21.486Z,7.302551
2018-12-04T14:09:44.238Z,7.232056
2018-12-04T14:15:06.974Z,7.16156
2018-12-04T14:20:29.667Z,7.121277
2018-12-04T14:25:53.181Z,7.050781
2018-12-04T14:31:16.180Z,7.000427
2018-12-04T14:36:38.979Z,6.758728
2018-12-04T14:42:02.746Z,6.688232
2018-12-04T14:47:25.477Z,6.607666
2018-12-04T14:52:48.178Z,6.315613
2018-12-04T14:58:10.977Z,6.174622
2018-12-04T15:03:33.610Z,5.78186
2018-12-04T15:08:56.560Z,5.016479
2018-12-04T15:14:19.151Z,4.472656
2018-12-04T15:19:41.939Z,4.14032
2018-12-04T15:25:04.775Z,3.807983
2018-12-04T15:30:28.556Z,3.485718
2018-12-04T15:35:51.222Z,3.304443
2018-12-04T15:41:13.881Z,3.223877
2018-12-04T15:46:36.579Z,3.123169
2018-12-04T15:51:59.317Z,3.042603
2018-12-04T15:57:22.071Z,2.992249
2018-12-04T16:02:44.755Z,2.871399
2018-12-04T16:08:07.498Z,2.790833
2018-12-04T16:13:30.128Z,2.579346
2018-12-04T16:18:52.804Z,2.528992
2018-12-04T16:24:15.512Z,2.498779
2018-12-04T16:29:39.174Z,2.478638
2018-12-04T16:35:01.915Z,2.619629
2018-12-04T16:40:24.608Z,2.619629
2018-12-04T16:45:47.293Z,2.609558
2018-12-04T16:51:10.066Z,2.327576
2018-12-04T16:56:32.765Z,2.176514
2018-12-04T17:01:55.454Z,2.106018
2018-12-04T17:07:18.165Z,1.824036
2018-12-04T17:12:40.966Z,1.642761
2018-12-04T17:18:03.702Z,1.239929
2018-12-04T17:23:26.309Z,1.350708
2018-12-04T17:28:49.064Z,1.683044
2018-12-04T17:34:11.694Z,1.652832
2018-12-04T17:39:34.429Z,1.179504
2018-12-04T17:44:57.129Z,0.806885
2018-12-04T17:50:19.907Z,0.665894
2018-12-04T17:55:42.723Z,0.514832
2018-12-04T18:01:05.429Z,0.74646
2018-12-04T18:06:28.251Z,1.058655
2018-12-04T18:11:51.784Z,1.25
2018-12-04T18:17:15.160Z,1.098938
2018-12-04T18:22:37.564Z,0.988159
2018-12-04T18:28:00.238Z,1.209717
2018-12-04T18:33:23.112Z,1.018372
2018-12-04T18:38:45.821Z,0.796814
2018-12-04T18:44:08.711Z,1.078796
2018-12-04T18:49:31.408Z,0.887451
2018-12-04T18:54:54.103Z,0.887451
2018-12-04T19:00:16.853Z,0.555115
2018-12-04T19:05:39.617Z,0.61554
2018-12-04T19:11:02.214Z,0.49469
2018-12-04T19:16:24.926Z,0.49469
2018-12-04T19:21:47.768Z,0.585327
2018-12-04T19:27:10.971Z,0.514832
2018-12-04T19:32:33.590Z,0.514832
2018-12-04T19:37:56.746Z,0.534973
2018-12-04T19:43:19.972Z,0.343628
2018-12-04T19:48:43.093Z,0.383911
2018-12-04T19:54:06.815Z,0.343628
2018-12-04T19:59:37.413Z,0.343628
2018-12-04T20:05:04.954Z,0.37384
2018-12-04T20:10:31.799Z,0.192566
2018-12-04T20:16:01.612Z,0.343628
2018-12-04T20:27:18.803Z,0.343628
2018-12-04T20:32:44.882Z,0.333557
2018-12-04T20:38:21.306Z,0.263062
2018-12-04T20:43:51.025Z,0.444336
2018-12-04T20:49:13.923Z,0.444336
2018-12-04T20:54:37.532Z,0.665894
2018-12-04T21:00:00.560Z,0.595398
2018-12-04T21:05:24.959Z,0.49469
2018-12-04T21:10:48.880Z,0.524902
2018-12-04T21:16:11.588Z,0.49469
2018-12-04T21:21:34.604Z,0.665894
2018-12-04T21:26:59.031Z,0.776672
2018-12-04T21:32:22.668Z,0.706177
2018-12-04T21:37:44.408Z,0.62561
2018-12-04T21:43:07.281Z,0.665894
2018-12-04T21:48:30.474Z,0.736389
2018-12-04T21:53:53.214Z,0.806885
2018-12-04T21:59:15.900Z,0.675964
2018-12-04T22:04:38.729Z,0.635681
2018-12-04T22:10:01.625Z,0.514832
2018-12-04T22:15:24.474Z,0.484619
2018-12-04T22:20:47.259Z,0.383911
2018-12-04T22:26:10.021Z,0.444336
2018-12-04T22:31:32.786Z,0.303345
2018-12-04T22:36:55.429Z,0.132141
2018-12-04T22:42:18.173Z,0.222778
2018-12-04T22:47:41.623Z,0.081787
2018-12-04T22:53:04.343Z,0.232849
2018-12-04T22:58:27.061Z,0.051575
2018-12-04T23:03:49.760Z,0.041504
2018-12-04T23:09:12.849Z,-0.119629
2018-12-04T23:14:36.265Z,0.021362
2018-12-04T23:19:59.029Z,0.172424
2018-12-04T23:25:21.803Z,0.051575
2018-12-04T23:30:44.488Z,0.051575
2018-12-04T23:36:07.357Z,0.132141
2018-12-04T23:41:30.047Z,0.12207
2018-12-04T23:46:52.793Z,0.232849
2018-12-04T23:52:15.512Z,0.534973
2018-12-04T23:57:38.324Z,0.635681
